Time;durP1;ratioP1;P1;durP2;ratioP2;P2;SDS_P1;SDS_P2;PMS_P1;PMS_P2;Temp;Humidity;BMP_temperature;BMP_pressure;BME280_temperature;BME280_humidity;BME280_pressure;Samples;Min_cycle;Max_cycle;Signal;HPM_P1;HPM_P2
2023/11/08 00:02:04;;;;;;;;;;;;;;;6.53;100.00;100725.50;6212537;23;19963;-80
2023/11/08 00:04:29;;;;;;;;;;;;;;;6.55;100.00;100738.72;6214046;23;19919;-79
2023/11/08 00:06:54;;;;;;;;;;;;;;;6.52;100.00;100739.91;6213862;23;20240;-80
2023/11/08 00:11:58;;;;;;;;;;;;;;;6.53;100.00;100733.53;6216816;23;19976;-80
2023/11/08 00:14:23;;;;;;;;;;;;;;;6.58;100.00;100735.69;6213109;23;19958;-81
2023/11/08 00:22:51;;;;;;;;;;;;;;;6.43;100.00;100738.25;6204409;23;19931;-80
2023/11/08 00:25:28;;;;;;;;;;;;;;;6.43;100.00;100746.28;6213745;23;19912;-81
2023/11/08 00:27:54;;;;;;;;;;;;;;;6.49;100.00;100748.28;6213759;23;19990;-81
2023/11/08 00:30:22;;;;;;;;;;;;;;;6.42;100.00;100738.44;6215180;23;19927;-80
2023/11/08 00:32:47;;;;;;;;;;;;;;;6.33;100.00;100730.44;6215270;23;19958;-80
2023/11/08 00:35:12;;;;;;;;;;;;;;;6.40;100.00;100741.25;6217625;23;19920;-81
2023/11/08 00:37:37;;;;;;;;;;;;;;;6.38;100.00;100735.25;6217794;23;19970;-81
2023/11/08 00:40:06;;;;;;;;;;;;;;;6.44;100.00;100747.13;6209901;23;20018;-81
2023/11/08 00:42:31;;;;;;;;;;;;;;;6.34;100.00;100741.97;6214887;23;20498;-81
2023/11/08 00:44:56;;;;;;;;;;;;;;;6.32;100.00;100749.31;6212972;23;20332;-81
2023/11/08 00:47:21;;;;;;;;;;;;;;;6.28;100.00;100746.13;6215370;23;20341;-81
2023/11/08 00:49:47;;;;;;;;;;;;;;;6.48;100.00;100749.28;6216847;23;20322;-82
2023/11/08 00:52:12;;;;;;;;;;;;;;;6.54;100.00;100747.75;6214723;23;20248;-81
2023/11/08 00:54:37;;;;;;;;;;;;;;;6.45;100.00;100746.09;6214892;23;20224;-81
2023/11/08 00:57:06;;;;;;;;;;;;;;;6.48;100.00;100765.31;6215476;23;20307;-81
2023/11/08 00:59:32;;;;;;;;;;;;;;;6.52;100.00;100760.44;6214309;23;19912;-81
2023/11/08 01:01:57;;;;;;;;;;;;;;;6.53;100.00;100770.97;6213522;23;19935;-81
2023/11/08 01:04:22;;;;;;;;;;;;;;;6.48;100.00;100780.50;6214384;23;19916;-81
2023/11/08 01:06:47;;;;;;;;;;;;;;;6.51;100.00;100775.69;6213699;23;19934;-81
2023/11/08 01:09:15;;;;;;;;;;;;;;;6.53;100.00;100776.31;6214490;23;19958;-81
2023/11/08 01:11:42;;;;;;;;;;;;;;;6.50;100.00;100774.00;6213630;23;19989;-81
2023/11/08 01:14:08;;;;;;;;;;;;;;;6.41;100.00;100769.66;6213852;23;20321;-80
2023/11/08 01:16:35;;;;;;;;;;;;;;;6.47;100.00;100773.50;6213990;23;19923;-81
2023/11/08 01:19:00;;;;;;;;;;;;;;;6.49;100.00;100771.50;6214313;23;19916;-81
2023/11/08 01:21:28;;;;;;;;;;;;;;;6.36;100.00;100778.22;6214296;23;19912;-81
2023/11/08 01:23:53;;;;;;;;;;;;;;;6.31;100.00;100774.41;6186919;23;19915;-80
2023/11/08 01:26:22;;;;;;;;;;;;;;;6.31;100.00;100777.06;6215836;23;19912;-81
2023/11/08 01:28:47;;;;;;;;;;;;;;;6.32;100.00;100773.38;6214550;23;19943;-81
2023/11/08 01:31:12;;;;;;;;;;;;;;;6.30;100.00;100784.22;6213625;23;20429;-80
2023/11/08 01:33:37;;;;;;;;;;;;;;;6.32;100.00;100781.41;6214334;23;19973;-81
2023/11/08 01:36:04;;;;;;;;;;;;;;;6.34;100.00;100774.88;6215029;23;19916;-81
2023/11/08 01:38:30;;;;;;;;;;;;;;;6.33;100.00;100778.56;6216358;23;19935;-80
2023/11/08 01:40:56;;;;;;;;;;;;;;;6.31;100.00;100777.06;6215179;23;19912;-81
2023/11/08 01:43:31;;;;;;;;;;;;;;;6.30;100.00;100780.75;6214821;23;19958;-81
2023/11/08 01:46:17;;;;;;;;;;;;;;;6.15;100.00;100786.78;6215019;23;19912;-81
2023/11/08 01:48:42;;;;;;;;;;;;;;;6.19;100.00;100779.25;6188383;23;19942;-82
2023/11/08 01:51:08;;;;;;;;;;;;;;;6.10;100.00;100782.94;6214421;23;19912;-81
2023/11/08 01:53:36;;;;;;;;;;;;;;;6.07;100.00;100781.44;6186160;23;19936;-81
2023/11/08 01:56:01;;;;;;;;;;;;;;;6.09;100.00;100782.09;6214515;23;19978;-80
2023/11/08 01:58:26;;;;;;;;;;;;;;;6.03;100.00;100793.47;6213536;23;19920;-80
2023/11/08 02:00:52;;;;;;;;;;;;;;;6.15;100.00;100794.81;6212604;23;19922;-81
2023/11/08 02:03:17;;;;;;;;;;;;;;;6.28;100.00;100798.78;6188341;23;20006;-81
2023/11/08 02:05:45;;;;;;;;;;;;;;;6.33;100.00;100793.78;6213926;23;19966;-81
2023/11/08 02:08:11;;;;;;;;;;;;;;;6.29;100.00;100800.47;6212902;23;20281;-80
2023/11/08 02:10:36;;;;;;;;;;;;;;;6.36;100.00;100806.78;6215763;23;19908;-81
2023/11/08 02:13:02;;;;;;;;;;;;;;;6.43;100.00;100809.63;6213038;23;19916;-80
2023/11/08 02:15:27;;;;;;;;;;;;;;;6.40;100.00;100818.81;6187505;23;20269;-81
2023/11/08 02:17:52;;;;;;;;;;;;;;;6.36;100.00;100809.44;6215872;23;19908;-81
2023/11/08 02:20:18;;;;;;;;;;;;;;;6.41;100.00;100811.63;6215612;23;19912;-81
2023/11/08 02:22:43;;;;;;;;;;;;;;;6.46;100.00;100804.75;6213313;23;19923;-80
2023/11/08 02:25:08;;;;;;;;;;;;;;;6.46;100.00;100823.47;6216382;23;19912;-80
2023/11/08 02:27:45;;;;;;;;;;;;;;;;;;;;;
2023/11/08 02:30:13;;;;;;;;;;;;;;;6.47;100.00;100821.63;6190637;23;19987;-81
2023/11/08 02:32:38;;;;;;;;;;;;;;;6.53;100.00;100818.28;6215645;23;19912;-81
2023/11/08 02:35:04;;;;;;;;;;;;;;;6.48;100.00;100816.13;6216914;23;19919;-81
2023/11/08 02:37:30;;;;;;;;;;;;;;;6.44;100.00;100824.66;6217031;23;19912;-81
2023/11/08 02:39:55;;;;;;;;;;;;;;;6.55;100.00;100823.44;6217559;23;19958;-81
2023/11/08 02:42:21;;;;;;;;;;;;;;;6.52;100.00;100824.63;6216934;23;20011;-81
2023/11/08 02:44:46;;;;;;;;;;;;;;;6.46;100.00;100825.31;6215644;23;19958;-81
2023/11/08 02:47:11;;;;;;;;;;;;;;;6.64;100.00;100828.59;6217755;23;19911;-81
2023/11/08 02:49:36;;;;;;;;;;;;;;;6.61;100.00;100818.28;6218686;23;19970;-81
2023/11/08 02:52:01;;;;;;;;;;;;;;;6.69;100.00;100820.09;6215910;23;19920;-81
2023/11/08 02:54:27;;;;;;;;;;;;;;;6.80;100.00;100822.38;6218131;23;19958;-81
2023/11/08 02:56:52;;;;;;;;;;;;;;;6.70;100.00;100832.47;6216032;23;19919;-81
2023/11/08 02:59:19;;;;;;;;;;;;;;;6.82;100.00;100841.78;6215281;23;19912;-81
2023/11/08 03:01:45;;;;;;;;;;;;;;;6.79;100.00;100830.59;6215144;23;19977;-81
2023/11/08 03:04:10;;;;;;;;;;;;;;;6.66;100.00;100833.81;6213219;23;20396;-82
2023/11/08 03:06:36;;;;;;;;;;;;;;;6.72;100.00;100841.13;6213181;23;19941;-82
2023/11/08 03:09:01;;;;;;;;;;;;;;;6.79;100.00;100846.66;6214128;23;19920;-81
2023/11/08 03:11:26;;;;;;;;;;;;;;;6.65;100.00;100840.16;6212959;23;20098;-81
2023/11/08 03:13:51;;;;;;;;;;;;;;;6.71;100.00;100836.78;6214217;23;19958;-81
2023/11/08 03:16:16;;;;;;;;;;;;;;;6.76;100.00;100834.44;6214345;23;19958;-81
2023/11/08 03:18:42;;;;;;;;;;;;;;;6.74;100.00;100844.47;6215903;23;19920;-81
2023/11/08 03:21:08;;;;;;;;;;;;;;;6.82;100.00;100835.56;6214006;23;20258;-81
2023/11/08 03:23:33;;;;;;;;;;;;;;;6.88;100.00;100837.56;6212111;23;20312;-81
2023/11/08 03:25:59;;;;;;;;;;;;;;;6.85;100.00;100839.78;6213279;23;19987;-81
2023/11/08 03:28:24;;;;;;;;;;;;;;;6.73;100.00;100836.63;6213743;23;19908;-81
2023/11/08 03:30:49;;;;;;;;;;;;;;;6.80;100.00;100838.44;6213236;23;19923;-81
2023/11/08 03:33:14;;;;;;;;;;;;;;;6.90;100.00;100842.75;6212996;23;19916;-81
2023/11/08 03:35:39;;;;;;;;;;;;;;;6.91;100.00;100841.72;6213612;23;19908;-81
2023/11/08 03:38:05;;;;;;;;;;;;;;;6.92;100.00;100838.06;6213417;23;19911;-81
2023/11/08 03:40:30;;;;;;;;;;;;;;;6.78;100.00;100835.09;6187135;23;19934;-81
2023/11/08 03:42:56;;;;;;;;;;;;;;;6.79;100.00;100834.09;6214310;23;19916;-81
2023/11/08 03:45:22;;;;;;;;;;;;;;;6.71;100.00;100846.66;6215268;23;19912;-81
2023/11/08 03:47:50;;;;;;;;;;;;;;;6.77;100.00;100843.31;6214548;23;19912;-81
2023/11/08 03:50:17;;;;;;;;;;;;;;;6.72;100.00;100841.13;6214669;23;19983;-81
2023/11/08 03:52:42;;;;;;;;;;;;;;;6.79;100.00;100847.47;6214552;23;19999;-82
2023/11/08 03:55:10;;;;;;;;;;;;;;;6.72;100.00;100854.50;6215347;23;19948;-81
2023/11/08 03:57:36;;;;;;;;;;;;;;;6.73;100.00;100853.50;6214988;23;19912;-81
2023/11/08 04:00:01;;;;;;;;;;;;;;;6.80;100.00;100846.47;6214533;23;19938;-81
2023/11/08 04:02:26;;;;;;;;;;;;;;;6.77;100.00;100841.44;6214743;23;20337;-82
2023/11/08 04:04:51;;;;;;;;;;;;;;;6.70;100.00;100843.16;6215205;23;20352;-82
2023/11/08 04:07:18;;;;;;;;;;;;;;;6.76;100.00;100842.47;6215932;23;19970;-82
2023/11/08 04:09:43;;;;;;;;;;;;;;;6.71;100.00;100831.44;6215727;23;19920;-81
2023/11/08 04:12:09;;;;;;;;;;;;;;;6.66;100.00;100836.47;6217830;23;19923;-81
2023/11/08 04:14:34;;;;;;;;;;;;;;;6.55;100.00;100829.66;6215489;23;19920;-81
2023/11/08 04:17:00;;;;;;;;;;;;;;;6.59;100.00;100830.97;6216596;23;19916;-82
2023/11/08 04:19:25;;;;;;;;;;;;;;;6.67;100.00;100827.44;6212222;23;19920;-81
2023/11/08 04:21:51;;;;;;;;;;;;;;;6.60;100.00;100829.13;6213704;23;20318;-81
2023/11/08 04:24:28;;;;;;;;;;;;;;;6.48;100.00;100832.19;6214941;23;20356;-81
2023/11/08 04:26:53;;;;;;;;;;;;;;;6.57;100.00;100826.78;6212751;23;19912;-82
2023/11/08 04:29:28;;;;;;;;;;;;;;;6.64;100.00;100828.59;6215317;23;19916;-81
2023/11/08 04:32:02;;;;;;;;;;;;;;;6.58;100.00;100841.84;6215703;23;20379;-82
2023/11/08 04:34:27;;;;;;;;;;;;;;;6.65;100.00;100834.81;6211505;23;20324;-81
2023/11/08 04:36:53;;;;;;;;;;;;;;;6.61;100.00;100838.81;6213515;23;19919;-81
2023/11/08 04:39:27;;;;;;;;;;;;;;;6.56;100.00;100844.69;6214251;23;19934;-81
2023/11/08 04:41:52;;;;;;;;;;;;;;;6.50;100.00;100848.88;6215572;23;19912;-81
2023/11/08 04:44:29;;;;;;;;;;;;;;;6.57;100.00;100842.84;6212772;23;19951;-81
2023/11/08 04:47:03;;;;;;;;;;;;;;;6.60;100.00;100840.69;6214088;23;19923;-81
2023/11/08 04:49:29;;;;;;;;;;;;;;;6.49;100.00;100839.19;6212439;23;19919;-81
2023/11/08 04:52:22;;;;;;;;;;;;;;;6.40;100.00;100842.06;6213514;23;19920;-81
2023/11/08 04:54:48;;;;;;;;;;;;;;;6.42;100.00;100848.06;6213356;23;19916;-81
2023/11/08 04:57:25;;;;;;;;;;;;;;;6.41;100.00;100854.41;6211708;23;19951;-81
2023/11/08 05:00:05;;;;;;;;;;;;;;;6.43;100.00;100853.25;6213101;23;19983;-81
2023/11/08 05:02:33;;;;;;;;;;;;;;;6.29;100.00;100844.06;6213509;23;19986;-81
2023/11/08 05:04:58;;;;;;;;;;;;;;;6.34;100.00;100855.09;6211816;23;19908;-81
2023/11/08 05:07:25;;;;;;;;;;;;;;;6.36;100.00;100852.22;6213817;23;19912;-81
2023/11/08 05:09:53;;;;;;;;;;;;;;;6.43;100.00;100847.88;6214615;23;19908;-80
2023/11/08 05:12:19;;;;;;;;;;;;;;;6.35;100.00;100847.91;6213268;23;20240;-81
2023/11/08 05:14:44;;;;;;;;;;;;;;;6.42;100.00;100864.13;6213353;23;19936;-81
2023/11/08 05:17:09;;;;;;;;;;;;;;;6.48;100.00;100866.09;6214793;23;19908;-81
2023/11/08 05:19:34;;;;;;;;;;;;;;;6.52;100.00;100862.06;6211365;23;19920;-81
2023/11/08 05:22:00;;;;;;;;;;;;;;;6.44;100.00;100862.13;6213451;23;19919;-81
2023/11/08 05:24:27;;;;;;;;;;;;;;;6.39;100.00;100857.25;6213969;23;19912;-81
2023/11/08 05:26:52;;;;;;;;;;;;;;;6.36;100.00;100854.91;6212860;23;20039;-81
2023/11/08 05:29:20;;;;;;;;;;;;;;;6.42;100.00;100859.59;6213966;23;19912;-81
2023/11/08 05:31:47;;;;;;;;;;;;;;;6.30;100.00;100858.28;6213827;23;20347;-80
2023/11/08 05:34:12;;;;;;;;;;;;;;;6.38;100.00;100855.56;6213452;23;19951;-81
2023/11/08 05:36:38;;;;;;;;;;;;;;;6.25;100.00;100847.25;6215603;23;19938;-82
2023/11/08 05:39:03;;;;;;;;;;;;;;;6.21;100.00;100857.44;6215281;23;20261;-81
2023/11/08 05:41:29;;;;;;;;;;;;;;;6.15;100.00;100850.94;6215595;23;19912;-81
2023/11/08 05:43:56;;;;;;;;;;;;;;;6.13;100.00;100850.25;6214448;23;19912;-81
2023/11/08 05:46:21;;;;;;;;;;;;;;;6.07;100.00;100856.28;6215300;23;19954;-81
2023/11/08 05:48:46;;;;;;;;;;;;;;;6.01;100.00;100860.44;6214402;23;20248;-81
2023/11/08 05:51:12;;;;;;;;;;;;;;;6.03;100.00;100855.78;6214169;23;19919;-80
2023/11/08 05:53:37;;;;;;;;;;;;;;;6.04;100.00;100856.59;6214441;23;20268;-81
2023/11/08 05:56:03;;;;;;;;;;;;;;;6.08;100.00;100865.97;6214955;23;19916;-78
2023/11/08 05:58:28;;;;;;;;;;;;;;;6.01;100.00;100862.28;6216000;23;19966;-85
2023/11/08 06:00:57;;;;;;;;;;;;;;;6.01;100.00;100865.78;6214390;23;19920;-84
2023/11/08 06:03:23;;;;;;;;;;;;;;;5.97;100.00;100879.63;6213392;23;19920;-79
2023/11/08 06:05:48;;;;;;;;;;;;;;;5.88;100.00;100876.13;6213918;23;19931;-78
2023/11/08 06:08:13;;;;;;;;;;;;;;;5.85;100.00;100868.44;6214227;23;19994;-77
2023/11/08 06:10:38;;;;;;;;;;;;;;;6.02;100.00;100871.97;6214720;23;19915;-77
2023/11/08 06:13:04;;;;;;;;;;;;;;;6.01;100.00;100875.63;6214220;23;19912;-79
2023/11/08 06:15:29;;;;;;;;;;;;;;;5.99;100.00;100878.47;6215396;23;19918;-78
2023/11/08 06:17:54;;;;;;;;;;;;;;;6.00;100.00;100880.16;6214495;23;19912;-78
2023/11/08 06:20:20;;;;;;;;;;;;;;;6.07;100.00;100883.84;6215181;23;19951;-78
2023/11/08 06:22:45;;;;;;;;;;;;;;;6.02;100.00;100878.16;6214170;23;19922;-79
2023/11/08 06:25:10;;;;;;;;;;;;;;;6.09;100.00;100888.19;6214984;23;19912;-78
2023/11/08 06:27:35;;;;;;;;;;;;;;;6.13;100.00;100881.50;6214569;23;19951;-78
2023/11/08 06:35:42;;;;;;;;;;;;;;;6.21;100.00;100895.69;6155662;23;19963;-79
2023/11/08 06:38:31;;;;;;;;;;;;;;;6.16;100.00;100890.03;6158727;23;20257;-78
2023/11/08 06:40:56;;;;;;;;;;;;;;;6.07;100.00;100896.34;6151116;23;19989;-78
2023/11/08 06:43:22;;;;;;;;;;;;;;;6.14;100.00;100900.06;6157298;23;19925;-78
2023/11/08 06:45:48;;;;;;;;;;;;;;;5.90;100.00;100890.97;6158944;23;20377;-78
2023/11/08 06:48:47;;;;;;;;;;;;;;;5.96;100.00;100902.84;6160345;23;19927;-78
2023/11/08 06:51:22;;;;;;;;;;;;;;;5.95;100.00;100901.16;6158521;23;19951;-78
2023/11/08 06:54:02;;;;;;;;;;;;;;;5.86;100.00;100904.84;6157190;23;19989;-79
2023/11/08 06:56:37;;;;;;;;;;;;;;;5.90;100.00;100907.00;6154645;23;19916;-78
2023/11/08 06:59:02;;;;;;;;;;;;;;;5.84;100.00;100907.66;6154919;23;19913;-78
2023/11/08 07:01:41;;;;;;;;;;;;;;;5.92;100.00;100910.34;6157670;23;20314;-78
2023/11/08 07:04:37;;;;;;;;;;;;;;;5.87;100.00;100906.50;6154641;23;19960;-79
2023/11/08 07:07:02;;;;;;;;;;;;;;;5.99;100.00;100915.03;6154240;23;19951;-78
2023/11/08 07:09:39;;;;;;;;;;;;;;;6.04;100.00;100899.34;6155793;23;19913;-78
2023/11/08 07:12:05;;;;;;;;;;;;;;;6.08;100.00;100898.03;6155303;23;19917;-77
2023/11/08 07:14:30;;;;;;;;;;;;;;;6.22;100.00;100901.88;6155650;23;20219;-78
2023/11/08 07:16:56;;;;;;;;;;;;;;;6.34;100.00;100899.72;6157272;23;19936;-78
2023/11/08 07:19:21;;;;;;;;;;;;;;;6.49;100.00;100908.72;6155363;23;19916;-79
2023/11/08 07:22:03;;;;;;;;;;;;;;;7.10;100.00;100910.94;6156111;23;19913;-79
2023/11/08 07:24:41;;;;;;;;;;;;;;;7.71;100.00;100913.00;6152431;23;19913;-79
2023/11/08 07:27:06;;;;;;;;;;;;;;;7.93;97.56;100912.34;6155283;23;19919;-79
2023/11/08 07:29:31;;;;;;;;;;;;;;;7.73;98.05;100905.63;6155033;23;19948;-79
2023/11/08 07:32:29;;;;;;;;;;;;;;;7.27;99.81;100919.75;6177781;23;19916;-80
2023/11/08 07:34:54;;;;;;;;;;;;;;;7.04;100.00;100908.97;6184920;23;19916;-81
2023/11/08 07:37:29;;;;;;;;;;;;;;;6.88;100.00;100925.06;6183095;23;20335;-79
2023/11/08 07:39:54;;;;;;;;;;;;;;;6.77;100.00;100918.22;6183160;23;20027;-79
2023/11/08 07:42:26;;;;;;;;;;;;;;;6.74;100.00;100923.91;6183410;23;19971;-78
2023/11/08 07:44:51;;;;;;;;;;;;;;;6.79;100.00;100927.75;6184588;23;19908;-78
2023/11/08 07:47:17;;;;;;;;;;;;;;;6.86;100.00;100916.38;6184389;23;19920;-80
2023/11/08 07:49:42;;;;;;;;;;;;;;;7.19;100.00;100921.63;6185612;23;19913;-80
2023/11/08 07:52:07;;;;;;;;;;;;;;;7.30;100.00;100923.09;6187090;23;19913;-80
2023/11/08 07:54:35;;;;;;;;;;;;;;;7.38;100.00;100926.56;6184189;23;19918;-80
2023/11/08 07:57:00;;;;;;;;;;;;;;;7.36;99.89;100936.63;6184163;23;19912;-79
2023/11/08 08:01:51;;;;;;;;;;;;;;;7.27;99.85;100932.28;6205636;22;20374;-80
2023/11/08 08:04:16;;;;;;;;;;;;;;;7.34;99.52;100935.94;6213696;23;19920;-80
2023/11/08 08:06:41;;;;;;;;;;;;;;;7.15;100.00;100931.00;6214354;23;20045;-80
2023/11/08 08:09:06;;;;;;;;;;;;;;;7.21;100.00;100933.00;6218152;23;19916;-80
2023/11/08 08:11:32;;;;;;;;;;;;;;;7.29;100.00;100930.28;6219604;23;19927;-79
2023/11/08 08:13:57;;;;;;;;;;;;;;;7.36;100.00;100927.72;6221155;23;19984;-79
2023/11/08 08:16:22;;;;;;;;;;;;;;;7.22;100.00;100929.31;6228755;23;19916;-79
2023/11/08 08:18:48;;;;;;;;;;;;;;;7.47;100.00;100929.19;6224185;23;19912;-79
2023/11/08 08:21:16;;;;;;;;;;;;;;;7.46;100.00;100924.84;6214892;23;19919;-79
2023/11/08 08:23:42;;;;;;;;;;;;;;;7.57;99.64;100924.47;6222443;23;20243;-80
2023/11/08 08:26:07;;;;;;;;;;;;;;;7.39;100.00;100917.53;6215358;23;19912;-78
2023/11/08 08:28:34;;;;;;;;;;;;;;;7.25;100.00;100928.94;6228808;23;19926;-78
2023/11/08 08:31:00;;;;;;;;;;;;;;;7.37;100.00;100930.25;6225021;23;19988;-78
2023/11/08 08:35:53;;;;;;;;;;;;;;;7.39;100.00;100922.88;6212560;22;19927;-78
2023/11/08 08:38:25;;;;;;;;;;;;;;;7.46;100.00;100924.84;6215028;23;19915;-79
2023/11/08 08:40:59;;;;;;;;;;;;;;;7.49;100.00;100920.00;6213262;23;20235;-78
2023/11/08 08:43:42;;;;;;;;;;;;;;;7.67;100.00;100917.03;6212407;23;19919;-79
2023/11/08 08:46:08;;;;;;;;;;;;;;;7.68;99.85;100916.03;6215141;23;20175;-78
2023/11/08 08:48:51;;;;;;;;;;;;;;;7.88;98.30;100920.94;6134940;23;19922;-78
2023/11/08 08:53:58;;;;;;;;;;;;;;;7.90;98.93;100924.28;6214084;22;20425;-80
2023/11/08 08:56:29;;;;;;;;;;;;;;;7.89;98.64;100927.97;6186371;23;19912;-79
2023/11/08 08:59:25;;;;;;;;;;;;;;;7.80;99.91;100926.34;6214297;23;19966;-79
2023/11/08 09:02:06;;;;;;;;;;;;;;;7.69;100.00;100928.41;6213767;23;19916;-79
2023/11/08 09:04:44;;;;;;;;;;;;;;;7.73;100.00;100902.94;6212588;23;19919;-79
2023/11/08 09:07:11;;;;;;;;;;;;;;;7.79;100.00;100919.31;6215566;23;20165;-79
2023/11/08 09:09:36;;;;;;;;;;;;;;;7.83;100.00;100926.00;6201885;23;19942;-79
2023/11/08 09:12:01;;;;;;;;;;;;;;;8.07;99.39;100913.44;6215420;23;19983;-80
2023/11/08 09:14:30;;;;;;;;;;;;;;;8.27;98.39;100928.03;6216654;23;19919;-79
2023/11/08 09:17:24;;;;;;;;;;;;;;;8.49;97.92;100929.06;6215458;23;19916;-79
2023/11/08 09:20:08;;;;;;;;;;;;;;;8.83;95.58;100929.56;6093060;23;20350;-78
2023/11/08 09:23:03;;;;;;;;;;;;;;;8.98;93.46;100924.22;6090561;23;19913;-79
2023/11/08 09:25:28;;;;;;;;;;;;;;;9.09;93.70;100920.22;6189109;23;19912;-79
2023/11/08 09:27:53;;;;;;;;;;;;;;;9.25;92.50;100911.97;6215704;23;19988;-79
2023/11/08 09:30:18;;;;;;;;;;;;;;;9.32;91.80;100917.44;6217923;23;20276;-79
2023/11/08 09:32:44;;;;;;;;;;;;;;;9.30;91.55;100924.03;6212564;23;20205;-79
2023/11/08 09:35:09;;;;;;;;;;;;;;;9.15;91.90;100908.75;6214667;23;20287;-79
2023/11/08 09:37:36;;;;;;;;;;;;;;;9.15;93.16;100924.03;6215126;23;19919;-79
2023/11/08 09:40:01;;;;;;;;;;;;;;;9.15;91.77;100922.19;6215125;23;19916;-80
2023/11/08 09:42:31;;;;;;;;;;;;;;;9.12;92.62;100917.19;6215152;23;19923;-80
2023/11/08 09:44:58;;;;;;;;;;;;;;;9.23;92.12;100908.66;6216112;23;19919;-79
2023/11/08 09:47:23;;;;;;;;;;;;;;;9.31;91.87;100915.75;6216040;23;20103;-79
2023/11/08 09:49:49;;;;;;;;;;;;;;;9.35;92.01;100905.50;6189484;23;19916;-79
2023/11/08 09:52:14;;;;;;;;;;;;;;;9.36;91.01;100917.88;6214891;23;19916;-79
2023/11/08 09:54:41;;;;;;;;;;;;;;;9.27;91.07;100913.66;6215854;23;19919;-81
2023/11/08 09:57:08;;;;;;;;;;;;;;;9.22;91.69;100901.59;6216688;23;19986;-80
2023/11/08 09:59:33;;;;;;;;;;;;;;;9.27;92.42;100910.97;6216190;23;19912;-79
2023/11/08 10:01:58;;;;;;;;;;;;;;;9.28;91.68;100909.94;6188877;23;19927;-81
2023/11/08 10:04:23;;;;;;;;;;;;;;;9.40;90.67;100897.69;6216947;23;19912;-81
2023/11/08 10:06:49;;;;;;;;;;;;;;;9.44;90.41;100898.97;6189690;23;19916;-81
2023/11/08 10:09:14;;;;;;;;;;;;;;;9.41;90.77;100904.72;6215744;23;20305;-79
2023/11/08 10:11:39;;;;;;;;;;;;;;;9.48;90.20;100900.28;6215451;23;19915;-81
2023/11/08 10:14:05;;;;;;;;;;;;;;;9.35;90.78;100894.75;6216343;23;19912;-81
2023/11/08 10:21:48;;;;;;;;;;;;;;;9.62;88.61;100873.56;6222323;22;19986;-80
2023/11/08 10:24:15;;;;;;;;;;;;;;;9.70;88.76;100882.31;6215774;23;19923;-80
2023/11/08 10:26:42;;;;;;;;;;;;;;;9.70;88.50;100876.94;6213987;23;20317;-80
2023/11/08 10:29:07;;;;;;;;;;;;;;;9.73;88.25;100880.28;6216280;23;20267;-81
2023/11/08 10:31:36;;;;;;;;;;;;;;;9.98;88.71;100883.44;6216464;23;19912;-80
2023/11/08 10:34:02;;;;;;;;;;;;;;;10.29;87.90;100879.56;6215243;23;19916;-79
2023/11/08 10:36:28;;;;;;;;;;;;;;;10.67;85.16;100876.56;6217852;23;19919;-80
2023/11/08 10:38:53;;;;;;;;;;;;;;;10.82;83.88;100870.22;6218107;23;19965;-80
2023/11/08 10:41:18;;;;;;;;;;;;;;;10.64;84.56;100879.66;6219370;23;19923;-80
2023/11/08 10:43:44;;;;;;;;;;;;;;;10.73;82.23;100877.63;6218611;23;19915;-80
2023/11/08 10:46:15;;;;;;;;;;;;;;;10.90;82.55;100868.19;6219287;23;19912;-81
2023/11/08 10:48:41;;;;;;;;;;;;;;;11.05;79.98;100861.84;6217226;22;19920;-81
2023/11/08 10:51:06;;;;;;;;;;;;;;;11.07;79.43;100860.63;6218985;23;19919;-81
2023/11/08 10:53:32;;;;;;;;;;;;;;;10.73;79.48;100859.63;6217335;23;19915;-80
2023/11/08 10:56:07;;;;;;;;;;;;;;;10.83;79.49;100853.03;6214101;23;19920;-80
2023/11/08 10:58:36;;;;;;;;;;;;;;;10.85;79.11;100859.06;6215243;23;19918;-80
2023/11/08 11:01:06;;;;;;;;;;;;;;;10.70;78.75;100854.63;6214322;23;19935;-79
2023/11/08 11:03:31;;;;;;;;;;;;;;;10.70;77.88;100837.63;6186794;23;19915;-79
2023/11/08 11:05:57;;;;;;;;;;;;;;;10.63;77.93;100842.97;6215604;23;20305;-80
2023/11/08 11:08:22;;;;;;;;;;;;;;;10.80;78.30;100848.03;6187071;23;19912;-82
2023/11/08 11:10:48;;;;;;;;;;;;;;;11.05;76.92;100834.91;6213967;23;19912;-79
2023/11/08 11:13:25;;;;;;;;;;;;;;;10.87;74.23;100848.94;6215752;23;19912;-79
2023/11/08 11:15:56;;;;;;;;;;;;;;;10.74;75.12;100839.75;6189491;23;19912;-81
2023/11/08 11:18:32;;;;;;;;;;;;;;;10.57;75.94;100843.78;6191470;22;19924;-79
2023/11/08 11:21:23;;;;;;;;;;;;;;;10.50;76.75;100834.81;6190989;23;19927;-79
2023/11/08 11:23:48;;;;;;;;;;;;;;;10.68;76.60;100834.34;6096031;23;20008;-80
2023/11/08 11:26:32;;;;;;;;;;;;;;;10.89;75.79;100844.19;6196627;23;20462;-80
2023/11/08 11:28:57;;;;;;;;;;;;;;;10.82;74.82;100836.06;6214074;23;20321;-79
2023/11/08 11:31:31;;;;;;;;;;;;;;;10.75;74.58;100841.41;6212365;23;19919;-79
2023/11/08 11:33:56;;;;;;;;;;;;;;;10.72;74.99;100831.03;6213718;23;20038;-80
2023/11/08 11:36:21;;;;;;;;;;;;;;;10.69;75.73;100831.44;6187372;23;19955;-79
2023/11/08 11:38:49;;;;;;;;;;;;;;;10.71;75.61;100836.59;6214034;23;19931;-79
2023/11/08 11:41:18;;;;;;;;;;;;;;;10.71;76.37;100842.84;6187058;23;19912;-78
2023/11/08 11:43:44;;;;;;;;;;;;;;;10.84;76.28;100841.25;6215692;23;19950;-78
2023/11/08 11:46:09;;;;;;;;;;;;;;;10.97;75.58;100832.41;6213770;23;19916;-79
2023/11/08 11:48:35;;;;;;;;;;;;;;;11.29;74.39;100827.34;6218539;23;19919;-79
2023/11/08 11:51:01;;;;;;;;;;;;;;;11.42;73.32;100831.94;6222995;23;19912;-78
2023/11/08 11:53:30;;;;;;;;;;;;;;;12.06;69.56;100829.78;6223943;23;19912;-78
2023/11/08 11:56:07;;;;;;;;;;;;;;;12.23;70.25;100831.03;6225749;23;19919;-78
2023/11/08 11:58:38;;;;;;;;;;;;;;;12.57;68.57;100831.81;6214981;23;20170;-79
2023/11/08 12:01:06;;;;;;;;;;;;;;;13.23;65.77;100831.00;6215084;23;19951;-80
2023/11/08 12:03:32;;;;;;;;;;;;;;;13.87;63.83;100825.63;6215127;23;19912;-79
2023/11/08 12:05:57;;;;;;;;;;;;;;;13.71;63.40;100805.34;6213580;23;19916;-79
2023/11/08 12:08:25;;;;;;;;;;;;;;;13.82;63.22;100812.78;6213831;23;19912;-79
2023/11/08 12:10:50;;;;;;;;;;;;;;;13.94;62.57;100807.47;6214192;23;20324;-79
2023/11/08 12:13:18;;;;;;;;;;;;;;;13.61;62.48;100800.41;6213566;23;19963;-78
2023/11/08 12:15:58;;;;;;;;;;;;;;;13.17;64.02;100801.06;6189673;23;20653;-78
2023/11/08 12:18:26;;;;;;;;;;;;;;;12.27;67.35;100797.19;6219921;23;19914;-79
2023/11/08 12:20:51;;;;;;;;;;;;;;;12.11;68.20;100797.63;6203124;23;19998;-78
2023/11/08 12:23:17;;;;;;;;;;;;;;;11.91;69.24;100801.13;6222751;22;19927;-78
2023/11/08 12:25:43;;;;;;;;;;;;;;;11.53;69.87;100785.50;6214835;23;19912;-78
2023/11/08 12:28:30;;;;;;;;;;;;;;;11.54;70.87;100789.88;6214258;23;19912;-78
2023/11/08 12:33:52;;;;;;;;;;;;;;;11.36;72.14;100780.50;6190605;23;20343;-77
2023/11/08 12:36:26;;;;;;;;;;;;;;;11.32;73.35;100786.50;6215233;23;19919;-78
2023/11/08 12:38:51;;;;;;;;;;;;;;;11.25;72.77;100769.50;6213914;23;19922;-77
2023/11/08 12:41:23;;;;;;;;;;;;;;;10.99;73.82;100777.28;6186881;23;19924;-77
2023/11/08 12:43:58;;;;;;;;;;;;;;;10.79;75.59;100782.59;6214441;23;19990;-77
2023/11/08 12:46:23;;;;;;;;;;;;;;;10.92;75.22;100768.38;6215966;23;19918;-77
2023/11/08 12:48:56;;;;;;;;;;;;;;;11.05;74.60;100768.41;6214410;23;20732;-77
2023/11/08 12:51:21;;;;;;;;;;;;;;;11.20;74.27;100775.50;6216043;23;19912;-78
2023/11/08 12:53:47;;;;;;;;;;;;;;;11.03;75.02;100766.97;6188505;23;19916;-77
2023/11/08 12:56:12;;;;;;;;;;;;;;;11.11;73.75;100760.56;6214785;23;19958;-78
2023/11/08 12:58:37;;;;;;;;;;;;;;;10.96;75.04;100764.22;6216782;23;19923;-78
2023/11/08 13:01:02;;;;;;;;;;;;;;;10.72;76.10;100765.56;6215633;23;19990;-78
2023/11/08 13:03:31;;;;;;;;;;;;;;;10.72;74.76;100755.66;6214916;23;19922;-78
2023/11/08 13:05:59;;;;;;;;;;;;;;;10.63;74.88;100756.03;6217568;23;19912;-78
2023/11/08 13:08:28;;;;;;;;;;;;;;;10.63;76.29;100756.84;6215036;23;19916;-77
2023/11/08 13:10:58;;;;;;;;;;;;;;;10.50;75.66;100752.19;6215257;23;20281;-78
2023/11/08 13:13:24;;;;;;;;;;;;;;;10.48;76.33;100743.53;6217436;23;19987;-78